createdAt,value
2022-10-23T00:01:21.946Z,3.72
2022-10-23T00:03:51.628Z,3.85
2022-10-23T00:06:19.292Z,3.50
2022-10-23T00:08:47.117Z,3.55
2022-10-23T00:11:15.937Z,3.60
2022-10-23T00:13:43.497Z,3.58
2022-10-23T00:16:12.415Z,3.33
2022-10-23T00:18:40.315Z,3.50
2022-10-23T00:21:08.145Z,3.50
2022-10-23T00:23:35.693Z,3.05
2022-10-23T00:26:03.272Z,3.30
2022-10-23T00:28:30.895Z,3.30
2022-10-23T00:30:58.565Z,3.55
2022-10-23T00:33:27.465Z,3.10
2022-10-23T00:35:55.141Z,3.00
2022-10-23T00:38:22.979Z,3.95
2022-10-23T00:43:24.048Z,3.28
2022-10-23T00:45:51.667Z,3.00
2022-10-23T00:48:19.506Z,3.28
2022-10-23T00:50:48.794Z,3.08
2022-10-23T00:53:16.501Z,2.90
2022-10-23T00:55:46.671Z,2.95
2022-10-23T00:58:14.401Z,2.92
2022-10-23T01:00:44.019Z,2.80
2022-10-23T01:03:11.524Z,2.63
2022-10-23T01:05:42.796Z,2.60
2022-10-23T01:08:15.394Z,3.08
2022-10-23T01:10:44.912Z,2.65
2022-10-23T01:13:13.592Z,2.67
2022-10-23T01:15:43.996Z,2.90
2022-10-23T01:18:13.901Z,2.80
2022-10-23T01:20:43.033Z,3.08
2022-10-23T01:23:23.613Z,2.58
2022-10-23T01:25:58.435Z,2.80
2022-10-23T01:28:29.271Z,2.50
2022-10-23T01:30:57.144Z,2.70
2022-10-23T01:33:26.626Z,2.60
2022-10-23T01:35:55.044Z,2.33
2022-10-23T01:38:24.500Z,2.50
2022-10-23T01:40:55.457Z,2.50
2022-10-23T01:43:25.415Z,2.40
2022-10-23T01:45:55.849Z,2.50
2022-10-23T01:48:26.927Z,2.50
2022-10-23T01:50:54.689Z,2.53
2022-10-23T01:53:22.253Z,2.50
2022-10-23T01:55:49.782Z,2.75
2022-10-23T01:58:17.418Z,2.30
2022-10-23T02:00:45.440Z,2.55
2022-10-23T02:03:14.413Z,2.35
2022-10-23T02:05:42.818Z,2.22
2022-10-23T02:08:10.494Z,2.47
2022-10-23T02:10:42.265Z,2.40
2022-10-23T02:13:11.968Z,2.50
2022-10-23T02:15:41.876Z,2.63
2022-10-23T02:18:10.907Z,2.15
2022-10-23T02:23:16.639Z,2.13
2022-10-23T02:25:47.250Z,1.90
2022-10-23T02:28:17.136Z,2.00
2022-10-23T02:30:45.799Z,1.90
2022-10-23T02:33:13.371Z,1.90
2022-10-23T02:35:42.316Z,2.10
2022-10-23T02:38:28.518Z,1.83
2022-10-23T02:40:56.107Z,2.08
2022-10-23T02:43:25.136Z,2.45
2022-10-23T02:45:55.133Z,2.47
2022-10-23T02:48:24.057Z,1.80
2022-10-23T02:50:54.517Z,1.77
2022-10-23T02:53:24.927Z,1.88
2022-10-23T02:55:57.437Z,1.80
2022-10-23T02:58:27.809Z,2.22
2022-10-23T03:00:56.840Z,1.80
2022-10-23T03:03:26.025Z,2.15
2022-10-23T03:05:55.034Z,1.80
2022-10-23T03:08:22.572Z,1.80
2022-10-23T03:10:51.351Z,1.85
2022-10-23T03:13:18.937Z,2.25
2022-10-23T03:15:46.485Z,1.80
2022-10-23T03:18:14.109Z,1.60
2022-10-23T03:20:41.646Z,1.73
2022-10-23T03:23:12.405Z,1.70
2022-10-23T03:25:39.968Z,1.70
2022-10-23T03:28:07.507Z,1.90
2022-10-23T03:30:35.096Z,1.60
2022-10-23T03:33:02.733Z,1.80
2022-10-23T03:35:30.298Z,1.67
2022-10-23T03:37:57.856Z,3.10
2022-10-23T03:40:26.716Z,2.28
2022-10-23T03:42:54.301Z,1.90
2022-10-23T03:45:21.848Z,2.10
2022-10-23T03:47:51.559Z,2.63
2022-10-23T03:50:19.134Z,1.92
2022-10-23T03:52:46.665Z,2.55
2022-10-23T03:55:15.064Z,1.88
2022-10-23T03:57:43.950Z,2.35
2022-10-23T04:00:12.644Z,1.83
2022-10-23T04:02:40.394Z,1.92
2022-10-23T04:05:08.588Z,1.60
2022-10-23T04:07:36.138Z,1.88
2022-10-23T04:10:03.672Z,1.60
2022-10-23T04:12:31.212Z,1.73
2022-10-23T04:15:00.156Z,1.52
2022-10-23T04:20:00.228Z,1.85
2022-10-23T04:22:28.604Z,1.90
2022-10-23T04:24:56.311Z,1.80
2022-10-23T04:27:23.921Z,2.08
2022-10-23T04:29:54.259Z,1.60
2022-10-23T04:32:25.761Z,1.95
2022-10-23T04:34:53.276Z,1.70
2022-10-23T04:37:20.865Z,1.65
2022-10-23T04:39:48.461Z,1.85
2022-10-23T04:42:16.108Z,1.70
2022-10-23T04:44:43.691Z,1.50
2022-10-23T04:47:11.261Z,1.60
2022-10-23T04:49:40.198Z,1.60
2022-10-23T04:52:07.749Z,1.70
2022-10-23T04:54:37.540Z,1.58
2022-10-23T04:57:05.089Z,1.60
2022-10-23T04:59:32.648Z,1.67
2022-10-23T05:02:00.574Z,1.52
2022-10-23T05:04:28.246Z,1.52
2022-10-23T05:06:57.158Z,1.60
2022-10-23T05:09:24.745Z,1.30
2022-10-23T05:11:52.316Z,1.42
2022-10-23T05:14:22.674Z,1.42
2022-10-23T05:16:52.206Z,1.60
2022-10-23T05:19:24.150Z,1.30
2022-10-23T05:21:55.592Z,1.20
2022-10-23T05:24:24.536Z,1.38
2022-10-23T05:26:52.855Z,1.80
2022-10-23T05:29:20.547Z,1.88
2022-10-23T05:31:48.201Z,1.30
2022-10-23T05:34:16.237Z,1.20
2022-10-23T05:36:43.778Z,2.00
2022-10-23T05:39:11.316Z,1.30
2022-10-23T05:41:40.256Z,1.48
2022-10-23T05:44:07.864Z,1.67
2022-10-23T05:46:35.425Z,1.30
2022-10-23T05:49:03.050Z,1.70
2022-10-23T05:51:30.580Z,1.55
2022-10-23T05:53:58.135Z,1.30
2022-10-23T05:56:25.699Z,1.38
2022-10-23T05:58:54.612Z,1.52
2022-10-23T06:01:23.038Z,1.45
2022-10-23T06:03:51.106Z,1.45
2022-10-23T06:06:18.682Z,1.25
2022-10-23T06:08:46.253Z,1.20
2022-10-23T06:11:14.975Z,1.20
2022-10-23T06:13:43.410Z,1.48
2022-10-23T06:16:12.673Z,1.30
2022-10-23T06:18:40.278Z,1.50
2022-10-23T06:21:07.829Z,1.23
2022-10-23T06:23:35.910Z,1.20
2022-10-23T06:26:03.657Z,1.98
2022-10-23T06:28:31.206Z,1.33
2022-10-23T06:30:58.818Z,1.20
2022-10-23T06:33:27.780Z,1.20
2022-10-23T06:35:56.861Z,1.13
2022-10-23T06:38:24.555Z,1.65
2022-10-23T06:40:53.482Z,0.90
2022-10-23T06:43:21.025Z,1.02
2022-10-23T06:45:48.585Z,1.00
2022-10-23T06:48:16.390Z,0.68
2022-10-23T06:50:45.373Z,1.27
2022-10-23T06:53:12.958Z,0.82
2022-10-23T06:55:40.872Z,1.17
2022-10-23T06:58:26.904Z,0.80
2022-10-23T07:01:16.590Z,1.65
2022-10-23T07:04:04.690Z,0.82
2022-10-23T07:06:33.850Z,6.88
2022-10-23T07:09:01.466Z,15.43
2022-10-23T07:11:29.125Z,47.42
2022-10-23T07:13:56.725Z,65.38
2022-10-23T07:16:24.755Z,45.20
2022-10-23T07:18:58.670Z,37.35
2022-10-23T07:21:26.362Z,37.75
2022-10-23T07:23:55.318Z,37.33
2022-10-23T07:26:22.880Z,36.58
2022-10-23T07:28:54.866Z,37.05
2022-10-23T07:31:25.632Z,34.33
2022-10-23T07:33:55.579Z,33.55
2022-10-23T07:36:23.145Z,31.85
2022-10-23T07:38:51.318Z,31.00
2022-10-23T07:41:20.229Z,31.33
2022-10-23T07:43:47.801Z,27.55
2022-10-23T07:46:15.420Z,28.67
2022-10-23T07:48:42.990Z,24.15
2022-10-23T07:51:13.169Z,10.65
2022-10-23T07:53:40.784Z,8.82
2022-10-23T07:56:13.157Z,17.58
2022-10-23T07:58:42.089Z,12.32
2022-10-23T08:01:16.562Z,10.15
2022-10-23T08:03:44.252Z,9.38
2022-10-23T08:06:11.897Z,11.32
2022-10-23T08:08:39.451Z,12.40
2022-10-23T08:11:07.234Z,9.00
2022-10-23T08:13:34.777Z,10.68
2022-10-23T08:16:03.673Z,10.32
2022-10-23T08:18:31.214Z,9.18
2022-10-23T08:21:01.079Z,9.20
2022-10-23T08:23:28.663Z,9.25
2022-10-23T08:25:58.374Z,8.38
2022-10-23T08:28:25.945Z,8.25
2022-10-23T08:30:53.499Z,8.10
2022-10-23T08:33:22.541Z,8.27
2022-10-23T08:35:50.078Z,7.68
2022-10-23T08:38:17.751Z,10.05
2022-10-23T08:40:46.145Z,6.78
2022-10-23T08:43:17.171Z,6.97
2022-10-23T08:45:45.885Z,6.90
2022-10-23T08:48:17.565Z,7.07
2022-10-23T08:50:48.014Z,6.47
2022-10-23T08:53:16.848Z,6.60
2022-10-23T08:55:45.758Z,5.93
2022-10-23T08:58:16.016Z,6.20
2022-10-23T09:00:43.764Z,6.03
2022-10-23T09:03:12.045Z,6.07
2022-10-23T09:05:46.944Z,5.97
2022-10-23T09:08:24.381Z,5.50
2022-10-23T09:11:03.409Z,5.30
2022-10-23T09:14:05.493Z,4.88
2022-10-23T09:16:47.278Z,4.70
2022-10-23T09:19:16.966Z,4.50
2022-10-23T09:21:47.123Z,4.47
2022-10-23T09:24:17.750Z,4.75
2022-10-23T09:26:48.219Z,4.30
2022-10-23T09:29:20.343Z,4.28
2022-10-23T09:31:52.064Z,4.22
2022-10-23T09:34:21.592Z,4.05
2022-10-23T09:39:29.759Z,3.33
2022-10-23T09:41:57.532Z,3.50
2022-10-23T09:44:25.664Z,3.47
2022-10-23T09:46:54.506Z,3.35
2022-10-23T09:49:23.109Z,3.55
2022-10-23T09:52:01.493Z,3.90
2022-10-23T09:54:30.056Z,3.10
2022-10-23T09:57:06.769Z,3.45
2022-10-23T09:59:34.338Z,4.57
2022-10-23T10:02:03.948Z,2.80
2022-10-23T10:04:33.341Z,2.92
2022-10-23T10:07:20.280Z,2.70
2022-10-23T10:09:47.997Z,5.13
2022-10-23T10:12:21.709Z,2.90
2022-10-23T10:14:54.626Z,2.60
2022-10-23T10:17:28.108Z,3.08
2022-10-23T10:20:08.219Z,2.70
2022-10-23T10:22:40.705Z,2.85
2022-10-23T10:25:11.206Z,2.25
2022-10-23T10:27:46.024Z,2.45
2022-10-23T10:30:15.052Z,2.42
2022-10-23T10:32:46.461Z,2.40
2022-10-23T10:35:42.072Z,2.28
2022-10-23T10:38:45.787Z,2.50
2022-10-23T10:41:23.528Z,2.85
2022-10-23T10:43:57.336Z,2.20
2022-10-23T10:46:27.082Z,2.72
2022-10-23T10:48:57.190Z,3.38
2022-10-23T10:51:28.061Z,1.90
2022-10-23T10:54:09.642Z,2.17
2022-10-23T10:56:39.505Z,2.70
2022-10-23T10:59:11.483Z,2.28
2022-10-23T11:01:40.841Z,2.00
2022-10-23T11:04:12.901Z,2.85
2022-10-23T11:06:40.441Z,2.92
2022-10-23T11:09:20.560Z,2.45
2022-10-23T11:11:49.058Z,3.60
2022-10-23T11:14:17.090Z,3.22
2022-10-23T11:16:47.114Z,1.88
2022-10-23T11:19:20.965Z,3.22
2022-10-23T11:21:51.517Z,2.75
2022-10-23T11:24:49.072Z,2.28
2022-10-23T11:27:25.023Z,2.25
2022-10-23T11:30:02.383Z,1.88
2022-10-23T11:32:49.179Z,4.53
2022-10-23T11:35:30.632Z,2.28
2022-10-23T11:38:00.114Z,3.78
2022-10-23T11:40:29.000Z,1.95
2022-10-23T11:42:56.609Z,3.40
2022-10-23T11:45:32.537Z,4.55
2022-10-23T11:48:01.376Z,1.40
2022-10-23T11:50:33.813Z,4.32
2022-10-23T11:53:14.773Z,2.67
2022-10-23T11:55:57.580Z,1.30
2022-10-23T11:58:31.318Z,1.50
2022-10-23T12:01:04.104Z,2.88
2022-10-23T12:03:37.164Z,3.50
2022-10-23T12:06:05.778Z,2.72
2022-10-23T12:08:35.568Z,4.38
2022-10-23T12:11:04.464Z,2.40
2022-10-23T12:13:46.303Z,1.92
2022-10-23T12:16:13.841Z,1.55
2022-10-23T12:18:48.921Z,2.15
2022-10-23T12:21:18.333Z,2.80
2022-10-23T12:24:05.762Z,2.35
2022-10-23T12:26:50.491Z,2.75
2022-10-23T12:29:29.601Z,1.98
2022-10-23T12:31:59.380Z,2.63
2022-10-23T12:34:33.249Z,1.60
2022-10-23T12:37:12.788Z,1.42
2022-10-23T12:39:40.755Z,1.10
2022-10-23T12:42:16.600Z,2.67
2022-10-23T12:44:44.165Z,1.35
2022-10-23T12:47:13.383Z,2.67
2022-10-23T12:49:40.913Z,1.20
2022-10-23T12:52:16.980Z,1.98
2022-10-23T12:54:44.541Z,1.27
2022-10-23T12:57:20.250Z,1.30
2022-10-23T12:59:47.805Z,1.27
2022-10-23T13:02:19.087Z,1.33
2022-10-23T13:04:46.708Z,1.23
2022-10-23T13:07:14.249Z,2.05
2022-10-23T13:09:42.812Z,2.42
2022-10-23T13:12:12.874Z,1.33
2022-10-23T13:14:44.572Z,1.88
2022-10-23T13:17:12.585Z,1.17
2022-10-23T13:19:40.090Z,1.15
2022-10-23T13:22:21.378Z,0.85
2022-10-23T13:24:48.923Z,1.38
2022-10-23T13:27:25.988Z,1.88
2022-10-23T13:29:54.881Z,1.08
2022-10-23T13:32:23.779Z,1.83
2022-10-23T13:35:03.541Z,0.98
2022-10-23T13:37:38.097Z,0.90
2022-10-23T13:40:07.566Z,1.10
2022-10-23T13:42:35.148Z,1.00
2022-10-23T13:45:04.156Z,1.30
2022-10-23T13:47:31.700Z,0.95
2022-10-23T13:49:59.209Z,1.50
2022-10-23T13:52:26.756Z,2.08
2022-10-23T13:54:54.277Z,1.33
2022-10-23T13:57:21.864Z,0.80
2022-10-23T13:59:49.425Z,1.02
2022-10-23T14:02:21.466Z,0.90
2022-10-23T14:04:49.397Z,0.95
2022-10-23T14:07:16.969Z,0.80
2022-10-23T14:09:44.568Z,1.05
2022-10-23T14:12:13.482Z,1.10
2022-10-23T14:14:41.046Z,0.82
2022-10-23T14:17:08.587Z,1.42
2022-10-23T14:22:10.240Z,1.08
2022-10-23T14:24:37.816Z,1.42
2022-10-23T14:27:05.388Z,1.10
2022-10-23T14:29:33.148Z,1.00
2022-10-23T14:32:00.694Z,0.60
2022-10-23T14:34:28.240Z,1.02
2022-10-23T14:37:08.198Z,1.00
2022-10-23T14:39:36.583Z,1.15
2022-10-23T14:42:04.802Z,0.70
2022-10-23T14:44:32.408Z,0.90
2022-10-23T14:47:00.045Z,0.82
2022-10-23T14:49:27.556Z,0.90
2022-10-23T14:51:55.100Z,0.80
2022-10-23T14:54:23.973Z,1.27
2022-10-23T14:56:51.512Z,1.85
2022-10-23T14:59:19.091Z,0.95
2022-10-23T15:01:48.382Z,0.73
2022-10-23T15:04:16.584Z,0.95
2022-10-23T15:06:44.150Z,0.80
2022-10-23T15:09:11.711Z,1.05
2022-10-23T15:11:40.630Z,0.70
2022-10-23T15:14:08.184Z,1.23
2022-10-23T15:16:40.991Z,0.70
2022-10-23T15:19:10.929Z,2.55
2022-10-23T15:21:41.247Z,1.25
2022-10-23T15:24:08.988Z,1.83
2022-10-23T15:26:38.095Z,1.42
2022-10-23T15:29:07.013Z,1.52
2022-10-23T15:31:41.790Z,2.47
2022-10-23T15:34:10.241Z,2.17
2022-10-23T15:36:37.792Z,3.42
2022-10-23T15:39:07.265Z,3.70
2022-10-23T15:41:35.597Z,1.00
2022-10-23T15:44:03.507Z,1.20
2022-10-23T15:46:32.563Z,1.10
2022-10-23T15:49:00.197Z,0.73
2022-10-23T15:51:27.860Z,0.85
2022-10-23T15:53:56.884Z,0.77
2022-10-23T15:56:24.818Z,3.70
2022-10-23T15:58:52.340Z,4.32
2022-10-23T16:01:20.007Z,3.53
2022-10-23T16:03:50.128Z,1.20
2022-10-23T16:06:18.222Z,11.63
2022-10-23T16:08:45.908Z,24.92
2022-10-23T16:11:15.301Z,31.00
2022-10-23T16:13:43.860Z,63.42
2022-10-23T16:16:11.444Z,78.28
2022-10-23T16:18:39.103Z,70.47
2022-10-23T16:21:08.438Z,80.28
2022-10-23T16:23:35.961Z,62.63
2022-10-23T16:26:04.746Z,56.83
2022-10-23T16:28:32.337Z,60.33
2022-10-23T16:31:00.039Z,57.20
2022-10-23T16:33:27.612Z,59.00
2022-10-23T16:35:55.193Z,50.17
2022-10-23T16:38:24.111Z,47.92
2022-10-23T16:40:52.742Z,48.05
2022-10-23T16:43:20.289Z,46.25
2022-10-23T16:45:47.914Z,42.25
2022-10-23T16:48:15.444Z,47.28
2022-10-23T16:50:43.011Z,42.30
2022-10-23T16:53:10.552Z,39.50
2022-10-23T16:55:42.405Z,39.60
2022-10-23T16:58:09.971Z,40.90
2022-10-23T17:00:37.569Z,36.58
2022-10-23T17:03:05.504Z,31.30
2022-10-23T17:05:34.169Z,33.65
2022-10-23T17:08:01.733Z,35.63
2022-10-23T17:10:29.362Z,30.20
2022-10-23T17:12:58.292Z,33.08
2022-10-23T17:15:25.893Z,28.33
2022-10-23T17:17:53.481Z,30.40
2022-10-23T17:20:21.164Z,30.92
2022-10-23T17:22:48.705Z,28.95
2022-10-23T17:25:16.428Z,32.08
2022-10-23T17:27:44.138Z,27.42
2022-10-23T17:30:14.290Z,26.10
2022-10-23T17:32:42.027Z,27.35
2022-10-23T17:35:10.457Z,26.35
2022-10-23T17:37:38.014Z,27.17
2022-10-23T17:40:07.005Z,25.48
2022-10-23T17:42:34.581Z,23.73
2022-10-23T17:45:02.153Z,26.05
2022-10-23T17:47:31.581Z,21.48
2022-10-23T17:49:59.108Z,21.27
2022-10-23T17:52:26.784Z,19.70
2022-10-23T17:54:54.381Z,23.02
2022-10-23T17:59:50.556Z,20.05
2022-10-23T18:02:18.183Z,19.58
2022-10-23T18:04:47.119Z,22.23
2022-10-23T18:07:14.710Z,18.15
2022-10-23T18:09:42.315Z,18.40
2022-10-23T18:12:09.936Z,17.63
2022-10-23T18:14:37.760Z,17.05
2022-10-23T18:17:05.396Z,17.13
2022-10-23T18:19:33.053Z,15.50
2022-10-23T18:22:02.026Z,16.67
2022-10-23T18:24:30.917Z,15.07
2022-10-23T18:26:58.449Z,18.27
2022-10-23T18:29:25.989Z,13.82
2022-10-23T18:31:53.554Z,15.95
2022-10-23T18:34:21.965Z,14.98
2022-10-23T18:36:49.789Z,14.65
2022-10-23T18:39:22.027Z,9.25
2022-10-23T18:41:50.278Z,8.35
2022-10-23T18:44:19.037Z,13.40
2022-10-23T18:46:46.807Z,9.27
2022-10-23T18:49:17.844Z,8.43
2022-10-23T18:51:45.558Z,10.63
2022-10-23T18:54:14.500Z,9.48
2022-10-23T18:56:43.804Z,9.93
2022-10-23T18:59:15.760Z,9.23
2022-10-23T19:01:43.458Z,11.13
2022-10-23T19:04:13.982Z,8.40
2022-10-23T19:06:41.559Z,9.05
2022-10-23T19:09:09.865Z,16.35
2022-10-23T19:11:37.907Z,10.18
2022-10-23T19:14:06.874Z,11.07
2022-10-23T19:16:35.853Z,7.63
2022-10-23T19:19:05.293Z,7.47
2022-10-23T19:21:53.207Z,8.25
2022-10-23T19:24:23.274Z,10.40
2022-10-23T19:26:50.893Z,8.02
2022-10-23T19:29:21.284Z,8.27
2022-10-23T19:31:49.784Z,6.70
2022-10-23T19:34:19.687Z,9.85
2022-10-23T19:36:47.482Z,7.30
2022-10-23T19:39:15.053Z,9.50
2022-10-23T19:41:42.851Z,8.82
2022-10-23T19:44:10.441Z,8.70
2022-10-23T19:46:39.337Z,8.52
2022-10-23T19:49:08.716Z,6.72
2022-10-23T19:51:36.277Z,6.57
2022-10-23T19:54:03.975Z,6.72
2022-10-23T19:56:31.581Z,7.70
2022-10-23T19:58:59.102Z,10.60
2022-10-23T20:01:26.792Z,6.50
2022-10-23T20:03:56.135Z,7.07
2022-10-23T20:06:25.042Z,6.80
2022-10-23T20:08:52.573Z,8.23
2022-10-23T20:11:21.344Z,7.47
2022-10-23T20:13:48.971Z,9.77
2022-10-23T20:16:19.965Z,8.05
2022-10-23T20:18:47.575Z,8.82
2022-10-23T20:21:16.535Z,6.82
2022-10-23T20:23:44.169Z,6.00
2022-10-23T20:26:13.063Z,6.90
2022-10-23T20:28:40.653Z,6.65
2022-10-23T20:31:09.291Z,8.05
2022-10-23T20:33:36.863Z,6.22
2022-10-23T20:36:04.582Z,7.15
2022-10-23T20:38:33.781Z,5.32
2022-10-23T20:41:05.557Z,7.95
2022-10-23T20:43:33.683Z,6.53
2022-10-23T20:46:04.290Z,9.98
2022-10-23T20:48:35.124Z,5.72
2022-10-23T20:51:03.816Z,6.30
2022-10-23T20:53:32.821Z,6.55
2022-10-23T20:56:00.393Z,3.83
2022-10-23T20:58:27.933Z,6.55
2022-10-23T21:00:57.217Z,4.07
2022-10-23T21:03:24.952Z,6.05
2022-10-23T21:05:52.522Z,4.25
2022-10-23T21:08:20.081Z,4.40
2022-10-23T21:10:49.054Z,5.38
2022-10-23T21:13:16.643Z,6.05
2022-10-23T21:15:44.210Z,5.50
2022-10-23T21:18:26.448Z,6.03
2022-10-23T21:21:02.702Z,5.85
2022-10-23T21:23:30.265Z,4.88
2022-10-23T21:26:02.194Z,5.97
2022-10-23T21:28:32.361Z,4.50
2022-10-23T21:31:03.214Z,6.47
2022-10-23T21:33:30.757Z,3.67
2022-10-23T21:36:04.802Z,3.85
2022-10-23T21:38:40.677Z,6.40
2022-10-23T21:41:10.300Z,4.25
2022-10-23T21:43:37.857Z,4.45
2022-10-23T21:46:05.540Z,3.75
2022-10-23T21:48:33.306Z,4.57
2022-10-23T21:51:00.933Z,4.45
2022-10-23T21:53:28.728Z,6.72
2022-10-23T21:55:56.390Z,4.85
2022-10-23T21:58:25.298Z,6.13
2022-10-23T22:00:52.845Z,4.22
2022-10-23T22:03:20.398Z,5.22
2022-10-23T22:05:48.006Z,4.18
2022-10-23T22:08:15.569Z,3.80
2022-10-23T22:10:43.160Z,4.43
2022-10-23T22:13:10.723Z,3.72
2022-10-23T22:15:39.620Z,5.47
2022-10-23T22:18:07.253Z,5.07
2022-10-23T22:20:34.801Z,6.85
2022-10-23T22:23:02.352Z,4.05
2022-10-23T22:25:30.606Z,6.15
2022-10-23T22:27:58.221Z,4.68
2022-10-23T22:30:25.776Z,5.00
2022-10-23T22:32:54.688Z,4.30
2022-10-23T22:35:22.252Z,5.72
2022-10-23T22:37:49.777Z,2.42
2022-10-23T22:40:17.565Z,5.18
2022-10-23T22:42:45.446Z,4.65
2022-10-23T22:45:13.195Z,4.68
2022-10-23T22:47:40.705Z,3.83
2022-10-23T22:50:10.113Z,3.72
2022-10-23T22:52:37.666Z,4.53
2022-10-23T22:55:06.006Z,5.65
2022-10-23T22:57:33.667Z,4.13
2022-10-23T23:00:01.225Z,3.05
2022-10-23T23:02:28.802Z,4.40
2022-10-23T23:04:56.317Z,3.53
2022-10-23T23:07:25.216Z,3.95
2022-10-23T23:09:52.769Z,3.45
2022-10-23T23:12:20.309Z,4.78
2022-10-23T23:14:48.052Z,5.03
2022-10-23T23:17:15.573Z,4.40
2022-10-23T23:19:43.103Z,4.28
2022-10-23T23:22:10.644Z,5.00
2022-10-23T23:24:39.492Z,2.58
2022-10-23T23:27:07.092Z,3.15
2022-10-23T23:29:34.765Z,5.00
2022-10-23T23:32:02.296Z,4.43
2022-10-23T23:34:29.965Z,4.00
2022-10-23T23:36:57.482Z,3.00
2022-10-23T23:39:25.997Z,3.80
2022-10-23T23:42:13.441Z,4.03
2022-10-23T23:44:50.261Z,3.70
2022-10-23T23:47:28.543Z,3.65
2022-10-23T23:49:56.104Z,3.90
2022-10-23T23:52:23.648Z,3.72
2022-10-23T23:54:51.195Z,3.17
2022-10-23T23:57:20.073Z,3.72
2022-10-23T23:59:47.785Z,3.22
